Time;durP1;ratioP1;P1;durP2;ratioP2;P2;SDS_P1;SDS_P2;PMS_P1;PMS_P2;Temp;Humidity;BMP_temperature;BMP_pressure;BME280_temperature;BME280_humidity;BME280_pressure;Samples;Min_cycle;Max_cycle;Signal;HPM_P1;HPM_P2
2022/09/27 00:00:37;;;;;;;10.50;1.35;;;;;;;10.58;100.00;99827.84;5068523;28;20477;-60
2022/09/27 00:03:03;;;;;;;11.38;1.58;;;;;;;10.58;100.00;99829.63;5069426;28;20468;-61
2022/09/27 00:05:29;;;;;;;7.68;1.30;;;;;;;10.52;100.00;99836.06;5082602;28;20047;-60
2022/09/27 00:07:55;;;;;;;9.43;1.30;;;;;;;10.58;100.00;99835.75;5088303;28;20028;-62
2022/09/27 00:10:20;;;;;;;12.60;1.70;;;;;;;10.58;100.00;99827.84;5088858;28;20544;-63
2022/09/27 00:12:47;;;;;;;12.82;1.55;;;;;;;10.58;100.00;99830.50;5089695;28;20044;-62
2022/09/27 00:15:12;;;;;;;7.50;1.17;;;;;;;10.60;100.00;99833.03;5089387;28;20028;-61
2022/09/27 00:17:38;;;;;;;9.35;1.33;;;;;;;10.48;100.00;99831.88;5088536;28;20044;-62
2022/09/27 00:20:05;;;;;;;6.35;1.05;;;;;;;10.38;100.00;99834.06;5089032;28;20024;-61
2022/09/27 00:22:31;;;;;;;12.77;1.77;;;;;;;10.34;100.00;99841.28;5086371;28;20031;-59
2022/09/27 00:24:56;;;;;;;4.82;1.10;;;;;;;10.26;100.00;99847.84;5088645;28;20028;-61
2022/09/27 00:27:22;;;;;;;9.35;1.45;;;;;;;10.11;100.00;99840.59;5087953;28;20024;-61
2022/09/27 00:29:47;;;;;;;5.30;1.00;;;;;;;10.01;100.00;99834.09;5089526;28;20095;-61
2022/09/27 00:32:13;;;;;;;5.10;1.30;;;;;;;9.88;100.00;99832.97;5089033;28;20067;-61
2022/09/27 00:34:39;;;;;;;8.52;1.30;;;;;;;9.75;100.00;99849.31;5087911;28;20036;-60
2022/09/27 00:37:04;;;;;;;6.63;1.23;;;;;;;9.72;100.00;99855.56;5087951;28;20041;-62
2022/09/27 00:39:30;;;;;;;2.97;0.90;;;;;;;9.77;100.00;99863.25;5088625;28;20032;-62
2022/09/27 00:41:55;;;;;;;7.93;1.30;;;;;;;9.82;100.00;99861.25;5088140;28;20111;-62
2022/09/27 00:44:23;;;;;;;9.05;1.40;;;;;;;9.91;100.00;99853.88;5088571;28;20055;-63
2022/09/27 00:46:56;;;;;;;9.00;1.50;;;;;;;9.93;100.00;99849.41;5088246;28;20028;-63
2022/09/27 00:49:25;;;;;;;8.77;1.13;;;;;;;9.93;100.00;99852.03;5088182;28;20270;-61
2022/09/27 00:51:54;;;;;;;10.50;1.42;;;;;;;9.91;100.00;99848.59;5087330;28;20077;-62
2022/09/27 00:54:21;;;;;;;12.50;1.92;;;;;;;9.84;100.00;99842.75;5075671;28;20033;-62
2022/09/27 00:56:48;;;;;;;2.80;1.13;;;;;;;9.79;100.00;99856.16;5067069;28;20021;-63
2022/09/27 00:59:19;;;;;;;11.63;1.35;;;;;;;9.75;100.00;99851.09;5065908;28;20024;-63
2022/09/27 01:01:45;;;;;;;10.95;3.03;;;;;;;9.67;100.00;99857.56;5072595;28;20024;-64
2022/09/27 01:04:13;;;;;;;11.50;1.83;;;;;;;9.60;100.00;99856.13;5158267;22;20060;-62
2022/09/27 01:06:38;;;;;;;8.48;1.63;;;;;;;9.56;100.00;99857.19;5085876;28;20020;-62
2022/09/27 01:09:06;;;;;;;10.40;1.50;;;;;;;9.54;100.00;99857.25;5069118;28;20031;-62
2022/09/27 01:11:50;;;;;;;8.65;1.55;;;;;;;9.54;100.00;99857.25;5087821;28;20480;-62
2022/09/27 01:14:47;;;;;;;10.18;1.50;;;;;;;9.61;100.00;99858.69;5088069;28;20024;-62
2022/09/27 01:18:00;;;;;;;14.07;1.83;;;;;;;9.70;100.00;99856.56;5087033;28;20020;-62
2022/09/27 01:21:03;;;;;;;9.18;1.50;;;;;;;9.77;100.00;99863.25;5005433;28;20038;-62
2022/09/27 01:23:51;;;;;;;10.75;1.58;;;;;;;9.82;100.00;99863.88;5087138;28;20032;-62
2022/09/27 01:26:31;;;;;;;8.88;1.77;;;;;;;9.88;100.00;99859.28;5085826;28;20024;-61
2022/09/27 01:29:14;;;;;;;8.13;1.67;;;;;;;9.98;100.00;99856.13;5087270;28;20099;-61
2022/09/27 01:31:54;;;;;;;12.57;1.65;;;;;;;10.10;99.39;99862.59;5085702;28;20057;-61
2022/09/27 01:34:30;;;;;;;6.13;1.20;;;;;;;10.22;97.35;99861.16;5086234;28;20482;-61
2022/09/27 01:36:55;;;;;;;7.68;1.33;;;;;;;10.29;96.58;99859.06;5085355;28;20023;-61
2022/09/27 01:39:45;;;;;;;9.68;1.95;;;;;;;10.32;95.89;99863.31;5087630;28;20553;-62
2022/09/27 01:42:20;;;;;;;11.00;1.40;;;;;;;10.34;95.21;99857.09;5086409;28;20078;-62
2022/09/27 01:44:53;;;;;;;10.75;1.40;;;;;;;10.30;94.60;99855.50;5085711;28;20134;-61
2022/09/27 01:47:21;;;;;;;10.88;1.65;;;;;;;10.29;94.81;99859.06;5086026;28;20024;-64
2022/09/27 01:49:55;;;;;;;8.38;1.52;;;;;;;10.23;95.02;99862.00;5078096;28;20028;-63
2022/09/27 01:52:26;;;;;;;15.70;1.60;;;;;;;10.15;95.15;99853.63;5064622;28;20094;-61
2022/09/27 01:54:55;;;;;;;11.18;1.67;;;;;;;10.11;95.47;99850.28;5065859;28;20032;-64
2022/09/27 01:57:21;;;;;;;;;;;;;;;10.10;95.82;99854.72;5067098;28;20056;-62
2022/09/27 01:59:53;;;;;;;10.05;1.48;;;;;;;10.13;96.19;99852.84;5066196;28;20314;-60
2022/09/27 02:02:23;;;;;;;6.80;1.17;;;;;;;10.13;96.60;99852.84;5066130;28;20154;-64
2022/09/27 02:04:49;;;;;;;6.35;0.98;;;;;;;10.09;96.77;99852.97;5065965;28;20048;-63
2022/09/27 02:07:28;;;;;;;9.38;1.40;;;;;;;10.04;97.09;99849.72;5064896;28;20048;-63
2022/09/27 02:10:01;;;;;;;13.98;2.28;;;;;;;10.07;97.53;99841.69;5064386;28;20025;-63
2022/09/27 02:12:30;;;;;;;9.57;1.85;;;;;;;10.13;96.73;99837.03;5064783;28;20063;-63
2022/09/27 02:15:09;;;;;;;7.53;1.30;;;;;;;10.12;96.82;99830.94;5049021;28;20025;-63
2022/09/27 02:17:43;;;;;;;4.63;1.57;;;;;;;10.09;96.94;99839.81;5065260;28;20039;-62
2022/09/27 02:20:23;;;;;;;8.73;1.40;;;;;;;10.07;97.30;99835.56;5065901;28;20342;-62
2022/09/27 02:22:52;;;;;;;11.25;1.30;;;;;;;10.07;97.54;99839.06;5065239;28;20035;-63
2022/09/27 02:25:25;;;;;;;10.20;1.30;;;;;;;10.14;97.84;99849.28;5067175;28;20031;-62
2022/09/27 02:28:22;;;;;;;4.68;1.45;;;;;;;10.23;97.03;99869.88;5066011;28;20133;-63
2022/09/27 02:30:47;;;;;;;10.80;1.50;;;;;;;10.33;96.95;99892.22;5075078;28;20032;-62
2022/09/27 02:33:12;;;;;;;9.90;1.63;;;;;;;10.33;96.01;99871.16;5086065;28;20080;-62
2022/09/27 02:35:38;;;;;;;11.48;1.45;;;;;;;10.35;95.26;99878.97;5085230;28;20043;-61
2022/09/27 02:38:05;;;;;;;6.15;0.95;;;;;;;10.29;95.33;99869.59;5084390;28;20050;-62
2022/09/27 02:40:33;;;;;;;3.88;0.80;;;;;;;10.27;93.66;99871.47;5085637;28;20036;-62
2022/09/27 02:42:59;;;;;;;1.50;0.70;;;;;;;10.20;93.53;99870.03;5087302;28;20036;-62
2022/09/27 02:45:36;;;;;;;10.00;1.20;;;;;;;10.12;94.36;99867.78;5086303;28;20277;-62
2022/09/27 02:48:07;;;;;;;4.63;0.75;;;;;;;10.06;95.06;99857.56;5085505;28;20033;-62
2022/09/27 02:51:22;;;;;;;4.15;1.40;;;;;;;9.95;95.80;99863.31;5086676;28;20538;-60
2022/09/27 02:54:19;;;;;;;4.97;1.15;;;;;;;9.78;97.08;99869.38;5082566;28;20130;-61
2022/09/27 02:56:56;;;;;;;5.18;1.00;;;;;;;9.69;97.58;99865.41;5086028;28;20032;-62
2022/09/27 02:59:39;;;;;;;4.40;1.00;;;;;;;9.53;97.71;99860.81;5086758;28;20435;-60
2022/09/27 03:02:16;;;;;;;9.25;1.27;;;;;;;9.46;98.65;99854.13;5085820;28;20385;-63
2022/09/27 03:04:55;;;;;;;4.75;1.27;;;;;;;9.37;99.00;99865.06;5085013;28;20054;-61
2022/09/27 03:07:21;;;;;;;6.82;0.90;;;;;;;9.28;98.98;99855.81;5085195;28;20028;-60
2022/09/27 03:09:48;;;;;;;2.40;0.73;;;;;;;9.21;99.96;99853.44;5084803;28;20038;-63
2022/09/27 03:12:19;;;;;;;4.95;1.40;;;;;;;9.14;100.00;99851.16;5087206;28;20017;-62
2022/09/27 03:14:45;;;;;;;7.30;1.55;;;;;;;9.03;100.00;99862.16;5085465;28;20051;-63
2022/09/27 03:17:11;;;;;;;2.63;0.88;;;;;;;8.95;100.00;99854.59;5086351;28;20035;-62
2022/09/27 03:19:36;;;;;;;6.72;0.88;;;;;;;8.84;100.00;99855.91;5085636;28;20032;-62
2022/09/27 03:22:01;;;;;;;4.90;1.08;;;;;;;8.82;100.00;99847.22;5087371;28;20028;-62
2022/09/27 03:24:27;;;;;;;5.47;1.02;;;;;;;8.87;100.00;99851.44;5088096;28;20038;-63
2022/09/27 03:26:52;;;;;;;9.68;2.17;;;;;;;8.91;100.00;99845.16;5090696;28;20024;-61
2022/09/27 03:29:17;;;;;;;1.23;0.60;;;;;;;8.95;100.00;99846.72;5089766;28;20028;-62
2022/09/27 03:31:42;;;;;;;6.53;1.00;;;;;;;8.94;100.00;99831.88;5089486;28;20107;-62
2022/09/27 03:34:08;;;;;;;5.40;0.90;;;;;;;9.04;100.00;99838.44;5089189;28;20127;-62
2022/09/27 03:36:33;;;;;;;8.85;1.23;;;;;;;9.08;100.00;99839.13;5088122;28;20051;-62
2022/09/27 03:38:58;;;;;;;6.05;1.13;;;;;;;9.07;100.00;99840.94;5089553;28;20887;-61
2022/09/27 03:41:24;;;;;;;6.57;1.13;;;;;;;9.12;100.00;99855.63;5089812;28;20043;-61
2022/09/27 03:43:49;;;;;;;7.35;1.10;;;;;;;9.24;100.00;99884.00;5089021;28;20024;-62
2022/09/27 03:46:14;;;;;;;6.72;1.13;;;;;;;9.29;100.00;99874.16;5088224;28;20024;-61
2022/09/27 03:48:41;;;;;;;4.47;1.02;;;;;;;9.36;100.00;99879.97;5089109;28;20066;-60
2022/09/27 03:51:07;;;;;;;8.13;1.33;;;;;;;9.45;100.00;99879.56;5089231;28;20028;-62
2022/09/27 03:53:32;;;;;;;8.20;1.42;;;;;;;9.53;100.00;99871.34;5087814;28;20032;-62
2022/09/27 03:55:57;;;;;;;11.02;1.58;;;;;;;9.61;100.00;99871.84;5089390;28;20024;-63
2022/09/27 03:58:23;;;;;;;5.95;1.38;;;;;;;9.67;100.00;99868.09;5088689;28;20024;-61
2022/09/27 04:00:48;;;;;;;7.25;1.20;;;;;;;9.73;100.00;99865.16;5089846;28;20024;-61
2022/09/27 04:03:13;;;;;;;10.93;1.40;;;;;;;9.77;100.00;99873.78;5089018;28;20467;-60
2022/09/27 04:05:39;;;;;;;6.00;1.45;;;;;;;9.84;100.00;99875.19;5088458;28;20378;-59
2022/09/27 04:08:05;;;;;;;7.35;1.08;;;;;;;9.84;100.00;99874.34;5088091;28;20374;-60
2022/09/27 04:10:30;;;;;;;4.35;1.00;;;;;;;9.85;100.00;99870.81;5073980;28;20051;-59
2022/09/27 04:12:56;;;;;;;7.03;0.90;;;;;;;9.81;100.00;99875.34;5080477;28;20047;-59
2022/09/27 04:15:21;;;;;;;2.60;0.80;;;;;;;9.74;100.00;99871.28;5088161;28;20063;-60
2022/09/27 04:17:47;;;;;;;8.90;0.95;;;;;;;9.64;100.00;99884.03;5088744;28;20680;-60
2022/09/27 04:20:12;;;;;;;8.25;2.00;;;;;;;9.66;100.00;99878.69;5089205;28;20058;-60
2022/09/27 04:22:40;;;;;;;3.28;0.95;;;;;;;9.64;100.00;99870.00;5078716;28;20421;-59
2022/09/27 04:25:06;;;;;;;6.30;1.00;;;;;;;9.54;100.00;99862.53;5080933;28;20024;-60
2022/09/27 04:27:31;;;;;;;8.40;1.33;;;;;;;9.46;100.00;99849.72;5066809;28;20036;-59
2022/09/27 04:29:57;;;;;;;8.13;1.35;;;;;;;9.35;100.00;99851.97;5070184;28;20031;-61
2022/09/27 04:32:22;;;;;;;5.63;1.08;;;;;;;9.37;100.00;99855.41;5086516;28;20031;-60
2022/09/27 04:37:31;;;;;;;2.22;0.90;;;;;;;9.32;100.00;99852.97;5087523;28;20054;-58
2022/09/27 04:39:57;;;;;;;5.43;1.27;;;;;;;9.29;100.00;99847.84;5089020;28;20633;-60
2022/09/27 04:42:22;;;;;;;5.50;1.05;;;;;;;9.23;100.00;99848.13;5088695;28;20028;-60
2022/09/27 04:44:47;;;;;;;2.47;0.85;;;;;;;9.21;100.00;99842.94;5088017;28;20032;-61
2022/09/27 04:47:13;;;;;;;3.30;0.98;;;;;;;9.17;100.00;99854.50;5088593;28;20028;-59
2022/09/27 04:49:38;;;;;;;5.03;1.25;;;;;;;9.17;100.00;99848.41;5087401;28;20469;-59
2022/09/27 04:52:04;;;;;;;3.75;1.00;;;;;;;9.16;100.00;99852.81;5086028;28;20471;-60
2022/09/27 04:54:30;;;;;;;7.35;1.25;;;;;;;9.19;100.00;99854.44;5087254;28;20026;-60
2022/09/27 04:56:55;;;;;;;6.75;1.15;;;;;;;9.26;100.00;99855.00;5082276;28;20027;-59
2022/09/27 04:59:21;;;;;;;6.82;1.50;;;;;;;9.30;100.00;99852.19;5082321;28;20482;-61
2022/09/27 05:01:46;;;;;;;9.27;1.52;;;;;;;9.37;100.00;99859.81;5087176;28;20056;-59
2022/09/27 05:04:12;;;;;;;8.15;1.67;;;;;;;9.42;100.00;99863.94;5086912;28;20047;-59
2022/09/27 05:06:37;;;;;;;9.07;1.20;;;;;;;9.48;100.00;99866.28;5086166;28;20581;-60
2022/09/27 05:09:02;;;;;;;7.82;1.35;;;;;;;9.43;100.00;99880.56;5085208;28;20517;-62
2022/09/27 05:11:28;;;;;;;5.75;1.17;;;;;;;9.54;100.00;99877.47;5085996;28;20103;-61
2022/09/27 05:13:53;;;;;;;6.32;1.08;;;;;;;9.63;100.00;99876.19;5086179;28;20466;-59
2022/09/27 05:16:19;;;;;;;7.07;1.30;;;;;;;9.65;100.00;99867.31;5084526;28;20024;-60
2022/09/27 05:18:44;;;;;;;6.53;0.93;;;;;;;9.69;100.00;99870.66;5086462;28;20020;-60
2022/09/27 05:21:10;;;;;;;8.80;1.20;;;;;;;9.68;100.00;99866.31;5079988;28;20151;-59
2022/09/27 05:23:35;;;;;;;10.30;1.15;;;;;;;9.77;100.00;99867.66;5065838;28;20056;-59
2022/09/27 05:26:05;;;;;;;5.85;1.00;;;;;;;9.83;100.00;99891.91;5067325;28;20058;-60
2022/09/27 05:28:30;;;;;;;;;;;;;;;9.81;100.00;99891.13;5085856;28;20474;-61
2022/09/27 05:30:55;;;;;;;6.38;1.10;;;;;;;9.75;100.00;99880.88;5085806;28;19963;-60
2022/09/27 05:33:21;;;;;;;7.30;1.42;;;;;;;9.65;100.00;99872.56;5085764;28;20028;-61
2022/09/27 05:35:53;;;;;;;10.50;1.40;;;;;;;9.64;100.00;99872.63;5085947;28;20279;-59
2022/09/27 05:38:18;;;;;;;7.03;0.95;;;;;;;9.67;100.00;99872.50;5085194;28;20032;-62
2022/09/27 05:40:46;;;;;;;10.13;1.00;;;;;;;9.65;100.00;99866.44;5086101;28;20047;-58
2022/09/27 05:43:12;;;;;;;7.55;1.23;;;;;;;9.66;100.00;99873.44;5069946;28;20050;-63
2022/09/27 05:45:37;;;;;;;7.78;1.45;;;;;;;9.69;100.00;99871.50;5065343;28;20119;-60
2022/09/27 05:48:04;;;;;;;7.47;0.90;;;;;;;9.73;100.00;99866.97;5078379;28;20099;-61
2022/09/27 05:50:29;;;;;;;6.40;1.00;;;;;;;9.80;100.00;99870.16;5084722;28;20019;-60
2022/09/27 05:52:54;;;;;;;10.13;1.33;;;;;;;9.82;100.00;99870.94;5075229;28;20391;-61
2022/09/27 05:55:20;;;;;;;9.75;1.25;;;;;;;9.84;100.00;99872.56;5085399;28;20054;-61
2022/09/27 05:57:57;;;;;;;5.60;1.05;;;;;;;9.86;100.00;99867.22;5084944;28;20058;-60
2022/09/27 06:00:24;;;;;;;6.70;1.15;;;;;;;9.88;100.00;99875.06;5085137;28;20040;-61
2022/09/27 06:02:57;;;;;;;7.78;1.00;;;;;;;9.86;100.00;99875.13;5084595;28;20028;-62
2022/09/27 06:05:23;;;;;;;8.55;1.77;;;;;;;9.81;100.00;99866.63;5084675;28;20127;-61
2022/09/27 06:07:49;;;;;;;5.38;1.42;;;;;;;9.79;100.00;99877.19;5083793;28;20055;-63
2022/09/27 06:10:15;;;;;;;9.10;1.23;;;;;;;9.77;100.00;99872.91;5086114;28;20028;-61
2022/09/27 06:12:41;;;;;;;5.75;1.00;;;;;;;9.78;100.00;99869.38;5085567;28;20020;-61
2022/09/27 06:15:07;;;;;;;6.28;1.25;;;;;;;9.78;100.00;99858.84;5086824;28;20432;-61
2022/09/27 06:17:35;;;;;;;3.85;0.88;;;;;;;9.75;100.00;99870.34;5085079;28;20074;-61
2022/09/27 06:20:01;;;;;;;9.13;1.33;;;;;;;9.81;100.00;99872.69;5068284;28;20020;-61
2022/09/27 06:22:26;;;;;;;6.90;1.10;;;;;;;9.84;100.00;99867.31;5083594;28;20084;-60
2022/09/27 06:24:52;;;;;;;4.43;0.93;;;;;;;9.88;100.00;99869.78;5076068;28;20023;-62
2022/09/27 06:27:17;;;;;;;6.57;1.38;;;;;;;9.95;100.00;99871.22;5073488;28;20027;-62
2022/09/27 06:29:43;;;;;;;6.32;1.52;;;;;;;9.95;100.00;99871.22;5077271;28;20159;-60
2022/09/27 06:32:09;;;;;;;7.57;1.45;;;;;;;9.96;100.00;99872.91;5077313;28;20862;-62
2022/09/27 06:34:35;;;;;;;8.00;1.80;;;;;;;9.96;100.00;99872.91;5074081;28;20032;-62
2022/09/27 06:37:00;;;;;;;12.45;1.85;;;;;;;9.97;100.00;99880.72;5072207;28;20479;-63
2022/09/27 06:39:26;;;;;;;9.00;2.38;;;;;;;10.07;100.00;99873.28;5063837;28;20025;-63
2022/09/27 06:41:56;;;;;;;6.68;1.35;;;;;;;10.10;100.00;99873.13;5084160;28;20393;-62
2022/09/27 06:44:22;;;;;;;7.95;1.42;;;;;;;10.15;100.00;99872.06;5084411;28;20481;-62
2022/09/27 06:46:47;;;;;;;6.38;1.42;;;;;;;10.19;100.00;99876.25;5085922;28;20103;-61
2022/09/27 06:49:13;;;;;;;8.45;1.60;;;;;;;10.22;100.00;99882.22;5086059;28;20422;-63
2022/09/27 06:51:38;;;;;;;11.43;1.65;;;;;;;10.33;100.00;99888.75;5084405;28;20555;-62
2022/09/27 06:54:03;;;;;;;10.75;1.80;;;;;;;10.32;100.00;99880.00;5084356;28;20086;-60
2022/09/27 06:56:29;;;;;;;9.55;1.35;;;;;;;10.39;100.00;99890.22;5086297;28;20028;-60
2022/09/27 07:01:38;;;;;;;4.70;1.10;;;;;;;10.42;100.00;99895.34;5074722;28;20044;-61
2022/09/27 07:04:04;;;;;;;5.10;0.88;;;;;;;10.41;100.00;99909.44;5068224;28;20053;-61
2022/09/27 07:06:30;;;;;;;4.13;1.20;;;;;;;10.38;100.00;99922.75;5077518;28;20632;-63
2022/09/27 07:08:55;;;;;;;8.23;1.00;;;;;;;10.30;100.00;99928.38;5089087;28;20020;-62
2022/09/27 07:11:22;;;;;;;8.02;1.42;;;;;;;10.19;100.00;99929.75;5087643;28;20050;-60
2022/09/27 07:13:47;;;;;;;5.55;1.00;;;;;;;10.15;99.70;99935.22;5089320;28;20016;-60
2022/09/27 07:16:13;;;;;;;4.45;0.88;;;;;;;10.05;99.04;99932.19;5081765;28;20032;-62
2022/09/27 07:18:40;;;;;;;4.18;0.90;;;;;;;9.92;100.00;99955.56;5068431;28;20024;-61
2022/09/27 07:21:05;;;;;;;2.55;0.75;;;;;;;9.84;100.00;99948.88;5070619;28;20028;-59
2022/09/27 07:23:31;;;;;;;6.03;0.90;;;;;;;9.75;100.00;99945.81;5088043;28;20032;-60
2022/09/27 07:26:03;;;;;;;5.03;0.90;;;;;;;9.66;100.00;99940.03;5087228;28;20059;-60
2022/09/27 07:28:28;;;;;;;6.40;0.98;;;;;;;9.57;100.00;99938.66;5088484;28;20020;-61
2022/09/27 07:30:55;;;;;;;9.32;1.27;;;;;;;9.57;100.00;99945.72;5087449;28;20470;-62
2022/09/27 07:33:20;;;;;;;14.48;1.85;;;;;;;9.49;100.00;99961.81;5087682;28;20039;-62
2022/09/27 07:35:45;;;;;;;5.93;1.02;;;;;;;9.52;100.00;99947.69;5081749;28;20021;-60
2022/09/27 07:38:15;;;;;;;6.60;0.90;;;;;;;9.50;100.00;99947.75;5080576;28;20028;-58
2022/09/27 07:40:41;;;;;;;5.10;0.90;;;;;;;9.51;100.00;99940.72;5088013;28;20036;-60
2022/09/27 07:43:08;;;;;;;14.30;1.35;;;;;;;9.49;100.00;99946.03;5087309;28;20028;-60
2022/09/27 07:45:33;;;;;;;9.52;1.10;;;;;;;9.56;100.00;99941.34;5084646;28;20105;-61
2022/09/27 07:47:59;;;;;;;8.27;1.08;;;;;;;9.59;100.00;99939.44;5081967;28;20033;-60
2022/09/27 07:50:25;;;;;;;7.22;1.42;;;;;;;9.72;100.00;99938.88;5077198;28;20122;-61
2022/09/27 07:52:51;;;;;;;9.43;1.73;;;;;;;9.75;100.00;99936.13;5079850;28;20115;-60
2022/09/27 07:55:17;;;;;;;8.68;1.80;;;;;;;9.82;100.00;99934.91;5077908;28;20036;-60
2022/09/27 07:57:45;;;;;;;8.85;1.50;;;;;;;9.93;100.00;99936.25;5067081;28;20382;-60
2022/09/27 08:00:13;;;;;;;10.13;2.00;;;;;;;9.98;100.00;99936.88;5075120;28;20031;-60
2022/09/27 08:02:42;;;;;;;6.00;1.50;;;;;;;10.01;100.00;99939.34;5089290;28;20028;-60
2022/09/27 08:05:09;;;;;;;6.40;1.63;;;;;;;9.96;100.00;99941.31;5086315;28;20357;-60
2022/09/27 08:07:34;;;;;;;9.05;2.00;;;;;;;9.92;100.00;99958.19;5084955;28;20345;-59
2022/09/27 08:09:59;;;;;;;10.13;1.77;;;;;;;10.05;100.00;99958.50;5087801;28;20047;-61
2022/09/27 08:12:25;;;;;;;8.30;1.38;;;;;;;10.09;100.00;99966.16;5085065;28;20482;-62
2022/09/27 08:14:55;;;;;;;6.82;1.38;;;;;;;10.18;100.00;99962.25;5081576;28;20028;-64
2022/09/27 08:17:20;;;;;;;3.67;0.85;;;;;;;10.32;100.00;99969.50;5078549;28;20048;-63
2022/09/27 08:19:48;;;;;;;10.35;1.58;;;;;;;10.46;100.00;99975.94;5076185;28;20366;-60
2022/09/27 08:22:15;;;;;;;6.03;2.08;;;;;;;10.43;100.00;99981.31;5078623;28;20378;-63
2022/09/27 08:24:41;;;;;;;5.45;1.30;;;;;;;10.42;100.00;99984.88;5075957;28;20522;-62
2022/09/27 08:27:07;;;;;;;6.72;1.42;;;;;;;10.40;100.00;99982.31;5076380;28;20029;-62
2022/09/27 08:29:33;;;;;;;6.13;1.08;;;;;;;10.32;100.00;99995.84;5077166;28;20047;-61
2022/09/27 08:31:59;;;;;;;6.65;1.38;;;;;;;10.30;100.00;99991.59;5081698;28;20016;-62
2022/09/27 08:34:24;;;;;;;4.63;1.23;;;;;;;10.34;100.00;99998.41;5080724;28;20089;-63
2022/09/27 08:36:49;;;;;;;3.33;0.90;;;;;;;10.16;100.00;99998.34;5085695;28;20442;-63
2022/09/27 08:39:15;;;;;;;5.45;1.13;;;;;;;10.16;100.00;99992.22;5086776;28;20020;-62
2022/09/27 08:41:49;;;;;;;5.10;1.08;;;;;;;10.13;100.00;99993.22;5079295;28;20090;-62
2022/09/27 08:44:30;;;;;;;5.28;0.95;;;;;;;10.02;100.00;99993.69;5077367;28;20057;-62
2022/09/27 08:46:57;;;;;;;7.50;1.20;;;;;;;10.03;100.00;99990.16;5082706;28;20047;-60
2022/09/27 08:49:28;;;;;;;6.13;1.48;;;;;;;10.00;100.00;99985.03;5080319;28;20021;-63
2022/09/27 08:51:54;;;;;;;5.18;1.25;;;;;;;9.97;100.00;99983.38;5076496;28;20066;-62
2022/09/27 08:54:23;;;;;;;7.15;1.02;;;;;;;10.01;100.00;99981.47;5080603;28;20401;-62
2022/09/27 08:56:48;;;;;;;12.18;2.17;;;;;;;10.08;100.00;99977.63;5085513;28;20103;-61
2022/09/27 08:59:20;;;;;;;12.20;2.20;;;;;;;10.17;100.00;99978.16;5086664;28;20456;-60
2022/09/27 09:01:47;;;;;;;14.45;2.63;;;;;;;10.27;100.00;99983.81;5084114;28;20024;-61
2022/09/27 09:04:22;;;;;;;10.00;1.92;;;;;;;10.41;100.00;99988.47;5079816;28;20127;-62
2022/09/27 09:07:14;;;;;;;5.88;1.70;;;;;;;10.51;100.00;99986.25;5074302;28;20022;-63
2022/09/27 09:09:54;;;;;;;5.40;1.33;;;;;;;10.59;100.00;99978.84;5077961;28;20031;-62
2022/09/27 09:12:47;;;;;;;4.95;1.05;;;;;;;10.56;100.00;99982.47;5080902;28;20121;-61
2022/09/27 09:15:53;;;;;;;6.43;1.40;;;;;;;10.79;100.00;99977.03;5088026;28;20114;-62
2022/09/27 09:18:37;;;;;;;9.25;1.67;;;;;;;10.94;100.00;99975.44;5082012;28;20057;-63
2022/09/27 09:21:11;;;;;;;6.32;1.70;;;;;;;11.12;100.00;99974.53;5075968;28;20036;-62
2022/09/27 09:23:52;;;;;;;5.28;1.45;;;;;;;11.31;100.00;99972.72;5075724;28;20053;-61
2022/09/27 09:26:20;;;;;;;7.60;1.58;;;;;;;11.43;100.00;99976.50;5084529;28;20028;-63
2022/09/27 09:29:13;;;;;;;4.63;1.15;;;;;;;11.60;100.00;99971.25;5086446;28;20024;-60
2022/09/27 09:31:50;;;;;;;7.32;1.40;;;;;;;11.68;100.00;99981.38;5070431;28;20854;-61
2022/09/27 09:34:24;;;;;;;6.72;1.17;;;;;;;11.73;100.00;99973.22;5076322;28;20017;-62
2022/09/27 09:36:55;;;;;;;2.70;0.88;;;;;;;11.96;100.00;99971.13;5076559;28;20120;-64
2022/09/27 09:39:41;;;;;;;5.85;1.42;;;;;;;11.85;100.00;99977.84;5073054;28;20016;-61
2022/09/27 09:42:23;;;;;;;7.03;1.38;;;;;;;11.80;100.00;99982.50;5074229;28;20509;-62
2022/09/27 09:45:15;;;;;;;6.03;1.27;;;;;;;11.88;100.00;99982.09;5080409;28;20036;-62
2022/09/27 09:47:44;;;;;;;2.33;1.00;;;;;;;11.88;100.00;99990.88;5059866;28;20044;-61
2022/09/27 09:50:17;;;;;;;6.10;1.40;;;;;;;11.88;99.95;99997.94;5066383;28;20027;-61
2022/09/27 09:52:50;;;;;;;5.82;1.10;;;;;;;11.66;96.77;100033.38;5080397;28;20067;-60
2022/09/27 09:55:22;;;;;;;5.05;1.40;;;;;;;11.24;96.77;100024.94;5085702;28;20024;-61
2022/09/27 09:58:00;;;;;;;2.67;0.90;;;;;;;10.67;98.61;100025.91;5070905;28;20105;-60
2022/09/27 10:00:25;;;;;;;8.38;1.20;;;;;;;10.44;100.00;100023.38;5066076;28;20024;-61
2022/09/27 10:02:53;;;;;;;3.58;1.02;;;;;;;10.26;100.00;100025.09;5080679;28;20563;-60
2022/09/27 10:05:21;;;;;;;2.50;0.90;;;;;;;10.04;100.00;100015.53;5084693;28;20044;-62
2022/09/27 10:07:49;;;;;;;3.75;0.80;;;;;;;9.92;100.00;100018.72;5066541;28;20371;-62
2022/09/27 10:10:16;;;;;;;3.22;0.80;;;;;;;9.81;100.00;100009.53;5085633;28;20067;-62
2022/09/27 10:12:42;;;;;;;4.80;1.50;;;;;;;9.73;100.00;100001.13;5083209;28;20078;-61
2022/09/27 10:15:20;;;;;;;5.05;0.75;;;;;;;9.69;100.00;100010.06;5084613;28;20036;-62
2022/09/27 10:17:52;;;;;;;2.92;0.80;;;;;;;9.68;100.00;100011.84;5085755;28;20085;-60
2022/09/27 10:20:41;;;;;;;4.07;1.08;;;;;;;9.69;100.00;100018.81;5086720;28;20020;-61
2022/09/27 10:23:20;;;;;;;3.25;1.55;;;;;;;9.70;100.00;100017.88;5084526;28;20438;-62
2022/09/27 10:25:52;;;;;;;5.72;1.30;;;;;;;9.69;100.00;100013.53;5087088;28;20020;-64
2022/09/27 10:28:42;;;;;;;5.15;1.58;;;;;;;9.65;100.00;100006.72;5086678;28;20032;-61
2022/09/27 10:31:11;;;;;;;6.07;1.35;;;;;;;9.64;100.00;100015.53;5085348;28;20059;-61
2022/09/27 10:33:38;;;;;;;2.70;1.17;;;;;;;9.60;100.00;100029.72;5083467;28;20141;-61
2022/09/27 10:36:21;;;;;;;5.43;1.60;;;;;;;9.63;100.00;100019.06;5084332;28;20035;-61
2022/09/27 10:38:55;;;;;;;5.85;1.80;;;;;;;9.66;100.00;100012.84;5086228;28;20032;-61
2022/09/27 10:41:25;;;;;;;4.65;1.90;;;;;;;9.59;100.00;100009.59;5068152;28;20036;-61
2022/09/27 10:43:50;;;;;;;4.93;1.92;;;;;;;9.56;100.00;100001.84;5085313;28;20115;-60
2022/09/27 10:46:30;;;;;;;4.30;0.88;;;;;;;9.60;100.00;100000.78;5086298;28;20114;-61
2022/09/27 10:49:11;;;;;;;4.32;0.82;;;;;;;9.53;100.00;99992.31;5084528;28;20115;-61
2022/09/27 10:51:37;;;;;;;5.53;0.90;;;;;;;9.50;100.00;99996.84;5085180;28;20035;-61
2022/09/27 10:54:02;;;;;;;1.65;1.05;;;;;;;9.53;100.00;100002.84;5084820;28;20035;-61
2022/09/27 10:56:29;;;;;;;2.67;1.00;;;;;;;9.51;100.00;100004.66;5085889;28;20030;-61
2022/09/27 10:58:56;;;;;;;3.25;0.90;;;;;;;9.53;100.00;100010.72;5083810;28;20028;-60
2022/09/27 11:01:23;;;;;;;4.05;1.00;;;;;;;9.54;100.00;100012.44;5085642;28;20055;-62
2022/09/27 11:03:52;;;;;;;5.32;1.25;;;;;;;9.51;100.00;100011.72;5084530;28;20028;-61
2022/09/27 11:06:31;;;;;;;6.95;1.30;;;;;;;9.58;100.00;99992.13;5084194;28;20035;-61
2022/09/27 11:09:10;;;;;;;3.88;0.93;;;;;;;9.53;100.00;99968.66;5085569;28;20047;-61
2022/09/27 11:11:36;;;;;;;3.25;1.00;;;;;;;9.52;100.00;99966.09;5084977;28;20123;-60
2022/09/27 11:14:06;;;;;;;7.50;1.30;;;;;;;9.59;100.00;99981.53;5083379;28;20111;-61
2022/09/27 11:17:09;;;;;;;2.28;0.70;;;;;;;9.91;100.00;99980.19;5080874;28;20020;-62
2022/09/27 11:19:49;;;;;;;3.22;0.75;;;;;;;10.01;100.00;99973.56;5065356;28;20028;-60
2022/09/27 11:22:31;;;;;;;3.15;0.82;;;;;;;10.23;100.00;99962.91;5072023;28;20057;-61
2022/09/27 11:25:00;;;;;;;4.18;0.80;;;;;;;10.44;100.00;99967.22;5084638;28;20034;-62
2022/09/27 11:27:32;;;;;;;10.73;1.23;;;;;;;10.65;100.00;99960.09;5083553;28;20030;-61
2022/09/27 11:30:07;;;;;;;6.68;1.40;;;;;;;10.73;100.00;99965.00;5085841;28;20035;-60
2022/09/27 11:32:53;;;;;;;4.75;0.77;;;;;;;10.76;100.00;99971.91;5083354;28;20123;-61
2022/09/27 11:35:25;;;;;;;3.70;1.20;;;;;;;10.93;100.00;99966.66;5084280;28;20024;-62
2022/09/27 11:38:28;;;;;;;3.03;1.08;;;;;;;11.04;100.00;99971.41;5070557;28;20036;-61
2022/09/27 11:41:07;;;;;;;4.43;0.90;;;;;;;11.33;100.00;99965.59;5065621;28;20024;-60
2022/09/27 11:43:45;;;;;;;3.22;0.82;;;;;;;11.27;100.00;99972.03;5087153;28;20032;-60
2022/09/27 11:46:29;;;;;;;4.25;0.80;;;;;;;11.53;100.00;99967.19;5089033;28;20450;-61
2022/09/27 11:49:05;;;;;;;8.25;1.33;;;;;;;11.35;100.00;99969.00;5088885;28;20374;-59